createdAt,value
2022-08-01T00:00:11.622Z,11.88
2022-08-01T00:05:33.748Z,11.78
2022-08-01T00:10:55.362Z,11.67
2022-08-01T00:16:17.461Z,11.52
2022-08-01T00:21:39.118Z,11.65
2022-08-01T00:27:13.807Z,11.48
2022-08-01T00:32:50.630Z,11.41
2022-08-01T00:38:12.718Z,11.10
2022-08-01T00:43:34.902Z,11.32
2022-08-01T00:48:56.750Z,11.09
2022-08-01T00:54:22.537Z,10.93
2022-08-01T00:59:45.000Z,11.05
2022-08-01T01:05:10.567Z,10.64
2022-08-01T01:10:38.258Z,11.17
2022-08-01T01:16:21.240Z,10.93
2022-08-01T01:22:16.938Z,10.69
2022-08-01T01:28:11.547Z,10.57
2022-08-01T01:33:45.357Z,10.85
2022-08-01T01:39:10.779Z,10.52
2022-08-01T01:44:33.650Z,10.71
2022-08-01T01:50:01.980Z,10.45
2022-08-01T01:55:27.420Z,10.40
2022-08-01T02:00:54.130Z,10.57
2022-08-01T02:06:18.378Z,10.69
2022-08-01T02:11:59.154Z,10.64
2022-08-01T02:17:26.386Z,10.40
2022-08-01T02:22:59.549Z,10.60
2022-08-01T02:28:32.754Z,10.59
2022-08-01T02:34:07.399Z,10.54
2022-08-01T02:39:36.339Z,10.83
2022-08-01T02:45:09.922Z,10.82
2022-08-01T02:50:33.689Z,10.90
2022-08-01T02:55:57.220Z,11.07
2022-08-01T03:01:22.219Z,11.14
2022-08-01T03:06:45.139Z,11.33
2022-08-01T03:12:12.296Z,11.39
2022-08-01T03:17:37.148Z,11.43
2022-08-01T03:23:01.605Z,11.38
2022-08-01T03:28:24.313Z,11.48
2022-08-01T03:33:54.854Z,11.72
2022-08-01T03:45:24.831Z,11.88
2022-08-01T03:50:51.882Z,12.07
2022-08-01T04:02:44.129Z,12.67
2022-08-01T04:08:06.573Z,12.89
2022-08-01T04:13:29.255Z,12.97
2022-08-01T04:18:59.188Z,13.27
2022-08-01T04:24:27.343Z,13.54
2022-08-01T04:36:02.429Z,14.46
2022-08-01T04:41:27.000Z,15.01
2022-08-01T04:46:51.729Z,15.80
2022-08-01T04:52:18.035Z,17.69
2022-08-01T04:57:46.404Z,19.61
2022-08-01T05:03:08.891Z,20.35
2022-08-01T05:08:31.241Z,20.52
2022-08-01T05:13:53.128Z,20.82
2022-08-01T05:19:15.172Z,21.11
2022-08-01T05:24:41.678Z,21.95
2022-08-01T05:30:05.848Z,22.54
2022-08-01T05:35:48.741Z,23.22
2022-08-01T05:41:15.690Z,23.46
2022-08-01T05:46:40.829Z,23.73
2022-08-01T05:52:07.052Z,24.00
2022-08-01T05:57:29.800Z,24.29
2022-08-01T06:02:52.040Z,24.25
2022-08-01T06:08:14.046Z,24.83
2022-08-01T06:13:44.904Z,24.66
2022-08-01T06:19:11.172Z,24.73
2022-08-01T06:24:33.501Z,24.67
2022-08-01T06:29:55.316Z,24.81
2022-08-01T06:35:18.182Z,24.50
2022-08-01T06:40:40.560Z,24.53
2022-08-01T06:46:02.300Z,24.46
2022-08-01T06:51:24.224Z,24.08
2022-08-01T06:56:46.160Z,23.26
2022-08-01T07:02:09.702Z,23.42
2022-08-01T07:07:32.901Z,23.83
2022-08-01T07:12:55.322Z,24.34
2022-08-01T07:18:17.567Z,24.11
2022-08-01T07:23:39.932Z,24.23
2022-08-01T07:29:08.259Z,23.44
2022-08-01T07:34:30.232Z,22.94
2022-08-01T07:39:53.260Z,22.85
2022-08-01T07:45:16.566Z,23.36
2022-08-01T07:50:38.480Z,23.87
2022-08-01T07:56:01.381Z,24.23
2022-08-01T08:01:23.474Z,24.58
2022-08-01T08:06:46.180Z,24.77
2022-08-01T08:12:08.638Z,24.91
2022-08-01T08:17:36.103Z,24.87
2022-08-01T08:23:01.826Z,24.84
2022-08-01T08:28:27.920Z,24.92
2022-08-01T08:33:50.132Z,24.94
2022-08-01T08:39:12.422Z,24.66
2022-08-01T08:44:34.854Z,24.81
2022-08-01T08:49:59.548Z,24.94
2022-08-01T08:55:22.712Z,25.11
2022-08-01T09:00:45.069Z,25.16
2022-08-01T09:06:11.291Z,24.95
2022-08-01T09:11:34.893Z,24.80
2022-08-01T09:17:12.381Z,24.95
2022-08-01T09:22:35.171Z,25.22
2022-08-01T09:28:08.187Z,25.20
2022-08-01T09:33:50.670Z,25.15
2022-08-01T09:39:15.955Z,25.38
2022-08-01T09:44:55.234Z,25.37
2022-08-01T09:50:18.105Z,25.41
2022-08-01T09:55:41.299Z,25.46
2022-08-01T10:01:04.541Z,25.51
2022-08-01T10:06:27.741Z,25.39
2022-08-01T10:11:50.820Z,24.94
2022-08-01T10:17:18.435Z,24.41
2022-08-01T10:22:45.730Z,23.94
2022-08-01T10:28:17.965Z,23.60
2022-08-01T10:33:51.334Z,23.37
2022-08-01T10:39:20.057Z,23.16
2022-08-01T10:44:43.696Z,22.80
2022-08-01T10:50:26.700Z,22.99
2022-08-01T10:55:59.161Z,23.01
2022-08-01T11:01:27.795Z,22.96
2022-08-01T11:07:17.996Z,22.98
2022-08-01T11:12:43.927Z,22.96
2022-08-01T11:18:31.630Z,22.90
2022-08-01T11:23:55.669Z,22.53
2022-08-01T11:29:21.896Z,22.92
2022-08-01T11:34:59.431Z,22.82
2022-08-01T11:40:34.789Z,22.87
2022-08-01T11:45:57.840Z,23.13
2022-08-01T11:51:25.665Z,23.39
2022-08-01T11:56:48.747Z,24.09
2022-08-01T12:02:31.267Z,24.26
2022-08-01T12:07:54.707Z,24.32
2022-08-01T12:13:17.060Z,24.53
2022-08-01T12:18:43.900Z,24.20
2022-08-01T12:24:08.257Z,24.64
2022-08-01T12:29:46.301Z,24.98
2022-08-01T12:35:21.760Z,25.12
2022-08-01T12:40:53.199Z,25.07
2022-08-01T12:46:18.909Z,25.52
2022-08-01T12:51:42.914Z,25.17
2022-08-01T12:57:32.363Z,25.09
2022-08-01T13:03:13.293Z,24.84
2022-08-01T13:08:43.991Z,24.88
2022-08-01T13:14:07.630Z,25.03
2022-08-01T13:19:44.740Z,24.72
2022-08-01T13:25:33.243Z,24.38
2022-08-01T13:31:09.163Z,24.58
2022-08-01T13:36:32.862Z,24.15
2022-08-01T13:41:56.048Z,24.33
2022-08-01T13:47:17.941Z,24.25
2022-08-01T13:52:40.087Z,24.23
2022-08-01T13:58:03.263Z,24.36
2022-08-01T14:03:33.646Z,24.36
2022-08-01T14:08:55.659Z,24.40
2022-08-01T14:14:17.791Z,24.26
2022-08-01T14:19:43.344Z,24.15
2022-08-01T14:25:09.482Z,24.12
2022-08-01T14:30:33.316Z,23.99
2022-08-01T14:36:06.336Z,23.88
2022-08-01T14:41:45.545Z,23.83
2022-08-01T14:47:16.309Z,23.45
2022-08-01T14:52:50.124Z,23.40
2022-08-01T14:58:12.030Z,23.41
2022-08-01T15:03:40.401Z,23.11
2022-08-01T15:09:19.771Z,22.98
2022-08-01T15:14:56.982Z,23.37
2022-08-01T15:20:27.548Z,22.82
2022-08-01T15:25:59.663Z,22.90
2022-08-01T15:31:36.932Z,22.71
2022-08-01T15:37:03.975Z,22.79
2022-08-01T15:42:32.626Z,22.70
2022-08-01T15:47:58.761Z,22.38
2022-08-01T15:53:24.736Z,22.35
2022-08-01T15:58:53.476Z,22.25
2022-08-01T16:04:29.896Z,22.11
2022-08-01T16:09:56.807Z,22.03
2022-08-01T16:15:36.076Z,21.87
2022-08-01T16:21:17.333Z,21.87
2022-08-01T16:26:56.619Z,21.39
2022-08-01T16:38:14.831Z,20.95
2022-08-01T16:44:13.235Z,21.25
2022-08-01T16:49:39.113Z,20.76
2022-08-01T16:55:01.163Z,20.90
2022-08-01T17:00:28.117Z,20.73
2022-08-01T17:05:51.040Z,20.55
2022-08-01T17:11:13.542Z,20.37
2022-08-01T17:16:35.389Z,20.18
2022-08-01T17:21:57.720Z,19.93
2022-08-01T17:27:20.784Z,19.75
2022-08-01T17:32:45.681Z,19.63
2022-08-01T17:38:07.403Z,19.36
2022-08-01T17:43:30.152Z,19.41
2022-08-01T17:48:55.526Z,19.20
2022-08-01T17:54:18.006Z,18.99
2022-08-01T17:59:40.748Z,18.74
2022-08-01T18:05:09.486Z,18.66
2022-08-01T18:10:32.861Z,18.44
2022-08-01T18:15:54.964Z,18.46
2022-08-01T18:21:18.462Z,18.18
2022-08-01T18:26:40.662Z,18.05
2022-08-01T18:32:04.108Z,17.96
2022-08-01T18:37:27.509Z,17.80
2022-08-01T18:42:55.360Z,17.65
2022-08-01T18:48:20.796Z,17.39
2022-08-01T18:53:43.481Z,17.19
2022-08-01T18:59:09.854Z,16.95
2022-08-01T19:04:35.023Z,16.82
2022-08-01T19:09:57.702Z,16.95
2022-08-01T19:15:19.974Z,16.73
2022-08-01T19:20:43.482Z,16.88
2022-08-01T19:26:10.296Z,16.62
2022-08-01T19:31:33.239Z,16.54
2022-08-01T19:37:00.364Z,16.24
2022-08-01T19:42:25.214Z,16.48
2022-08-01T19:47:53.991Z,16.37
2022-08-01T19:53:24.591Z,16.27
2022-08-01T19:58:52.897Z,15.97
2022-08-01T20:04:23.060Z,16.09
2022-08-01T20:09:48.983Z,16.00
2022-08-01T20:15:17.315Z,15.76
2022-08-01T20:20:39.382Z,15.70
2022-08-01T20:26:01.299Z,15.60
2022-08-01T20:31:28.519Z,15.58
2022-08-01T20:36:59.062Z,15.31
2022-08-01T20:42:24.822Z,15.13
2022-08-01T20:47:51.523Z,15.09
2022-08-01T20:53:23.403Z,15.02
2022-08-01T20:59:39.589Z,15.48
2022-08-01T21:05:32.631Z,14.90
2022-08-01T21:11:41.341Z,15.02
2022-08-01T21:17:25.554Z,15.04
2022-08-01T21:23:15.083Z,15.45
2022-08-01T21:28:53.953Z,15.38
2022-08-01T21:34:32.796Z,14.93
2022-08-01T21:40:15.606Z,15.05
2022-08-01T21:45:57.535Z,15.43
2022-08-01T21:51:43.001Z,15.31
2022-08-01T21:57:24.054Z,15.46
2022-08-01T22:03:04.522Z,15.20
2022-08-01T22:08:34.483Z,15.41
2022-08-01T22:14:00.564Z,15.45
2022-08-01T22:19:32.482Z,15.35
2022-08-01T22:25:06.066Z,15.48
2022-08-01T22:30:28.460Z,15.48
2022-08-01T22:35:55.705Z,15.41
2022-08-01T22:41:26.853Z,15.33
2022-08-01T22:47:24.358Z,15.31
2022-08-01T22:58:51.884Z,15.21
2022-08-01T23:04:46.343Z,14.88
2022-08-01T23:10:30.891Z,14.79
2022-08-01T23:15:56.284Z,14.82
2022-08-01T23:28:03.834Z,14.78
2022-08-01T23:33:39.299Z,14.93
2022-08-01T23:39:09.193Z,14.60
2022-08-01T23:44:34.223Z,14.73
2022-08-01T23:49:56.616Z,14.64
2022-08-01T23:55:25.094Z,14.69
